Time;durP1;ratioP1;P1;durP2;ratioP2;P2;SDS_P1;SDS_P2;PMS_P1;PMS_P2;Temp;Humidity;BMP_temperature;BMP_pressure;BME280_temperature;BME280_humidity;BME280_pressure;Samples;Min_cycle;Max_cycle;Signal;HPM_P1;HPM_P2
2023/09/20 18:26:48;;;;;;;3.83;1.60;;;21.60;94.50;;;;;;4991112;28;1261423;-78
2023/09/20 18:29:14;;;;;;;2.67;1.50;;;21.50;94.70;;;;;;5032644;28;20087;-79
2023/09/20 18:31:41;;;;;;;2.65;1.60;;;21.50;94.50;;;;;;5032413;28;20021;-79
2023/09/20 18:34:08;;;;;;;6.43;1.33;;;21.50;94.70;;;;;;5032350;28;20017;-77
2023/09/20 18:36:34;;;;;;;2.72;1.52;;;21.40;94.90;;;;;;5032187;28;20072;-73
2023/09/20 18:38:59;;;;;;;5.63;1.73;;;21.40;94.90;;;;;;5014152;28;20041;-69
2023/09/20 18:41:25;;;;;;;2.92;1.45;;;21.40;94.90;;;;;;5032247;28;20033;-70
2023/09/20 18:43:51;;;;;;;3.40;1.80;;;21.40;95.40;;;;;;5032395;28;20044;-70
2023/09/20 18:46:17;;;;;;;4.13;1.48;;;21.40;95.30;;;;;;5032332;28;20024;-70
2023/09/20 18:48:44;;;;;;;2.38;1.65;;;21.40;95.00;;;;;;5032469;28;20032;-69
2023/09/20 18:51:11;;;;;;;3.00;1.40;;;21.40;95.10;;;;;;5032625;28;20097;-69
2023/09/20 18:53:37;;;;;;;3.30;1.50;;;21.40;95.00;;;;;;5031981;28;20057;-73
2023/09/20 18:56:03;;;;;;;5.60;1.83;;;21.40;95.20;;;;;;5031241;28;20064;-72
2023/09/20 18:58:34;;;;;;;4.93;1.10;;;21.30;95.10;;;;;;5031838;28;20026;-71
2023/09/20 19:01:17;;;;;;;6.97;2.35;;;21.30;95.30;;;;;;5031993;28;20124;-80
2023/09/20 19:03:47;;;;;;;5.45;1.35;;;21.20;95.60;;;;;;5031890;28;20080;-72
2023/09/20 19:06:15;;;;;;;3.22;1.50;;;21.30;95.80;;;;;;5014336;28;20025;-71
2023/09/20 19:08:43;;;;;;;2.17;1.42;;;21.20;95.60;;;;;;5031872;28;20465;-72
2023/09/20 19:11:10;;;;;;;3.05;1.55;;;21.20;95.40;;;;;;5031034;28;20090;-72
2023/09/20 19:13:38;;;;;;;3.53;1.60;;;21.20;95.60;;;;;;5032012;28;20498;-73
2023/09/20 19:16:06;;;;;;;3.58;1.42;;;21.20;95.60;;;;;;5032096;28;20452;-73
2023/09/20 19:18:32;;;;;;;4.82;1.70;;;21.20;95.80;;;;;;5031980;28;20451;-74
2023/09/20 19:20:58;;;;;;;3.53;1.42;;;21.10;95.90;;;;;;5032162;28;20439;-74
2023/09/20 19:23:24;;;;;;;7.00;1.83;;;21.10;95.80;;;;;;5032025;28;20080;-74
2023/09/20 19:25:55;;;;;;;4.20;1.73;;;21.10;96.10;;;;;;5013582;28;20045;-73
2023/09/20 19:28:24;;;;;;;3.05;1.60;;;21.10;96.50;;;;;;5032827;28;20025;-69
2023/09/20 19:30:50;;;;;;;3.92;1.52;;;21.10;96.30;;;;;;5035756;28;20032;-74
2023/09/20 19:33:15;;;;;;;4.32;1.85;;;21.00;96.70;;;;;;5035761;28;20116;-74
2023/09/20 19:35:41;;;;;;;3.63;1.73;;;21.00;97.30;;;;;;5018353;28;20037;-73
2023/09/20 19:38:09;;;;;;;4.97;1.83;;;20.90;97.40;;;;;;5035743;28;20029;-73
2023/09/20 19:40:35;;;;;;;6.18;2.92;;;20.90;97.30;;;;;;5035875;28;20044;-74
2023/09/20 19:43:01;;;;;;;3.47;1.65;;;20.80;97.50;;;;;;5035956;28;20108;-74
2023/09/20 19:45:30;;;;;;;5.35;1.40;;;20.70;97.70;;;;;;5035631;28;20113;-74
2023/09/20 19:47:56;;;;;;;4.82;1.60;;;20.70;98.20;;;;;;5035824;28;20021;-73
2023/09/20 19:50:22;;;;;;;4.53;1.45;;;20.60;97.80;;;;;;5035713;28;20032;-74
2023/09/20 19:52:48;;;;;;;2.90;1.52;;;20.70;98.00;;;;;;5035736;28;20343;-73
2023/09/20 19:55:15;;;;;;;4.13;1.70;;;20.60;97.80;;;;;;5017912;28;20116;-74
2023/09/20 19:57:41;;;;;;;4.30;1.60;;;20.50;97.80;;;;;;5035662;28;20041;-74
2023/09/20 20:00:23;;;;;;;4.70;1.90;;;20.50;98.10;;;;;;5035462;28;20037;-73
2023/09/20 20:02:50;;;;;;;3.58;1.60;;;20.40;98.20;;;;;;5018057;28;20063;-73
2023/09/20 20:05:23;;;;;;;3.95;1.83;;;20.40;98.20;;;;;;5035464;28;20450;-72
2023/09/20 20:07:50;;;;;;;3.05;1.15;;;20.30;98.20;;;;;;5035559;28;20030;-73
2023/09/20 20:10:17;;;;;;;5.45;1.83;;;20.30;98.20;;;;;;5035507;28;20116;-73
2023/09/20 20:12:44;;;;;;;6.80;2.72;;;20.20;98.20;;;;;;5017892;28;20062;-74
2023/09/20 20:15:10;;;;;;;10.35;5.03;;;20.10;98.30;;;;;;5017929;28;20179;-73
2023/09/20 20:17:38;;;;;;;6.72;2.55;;;20.10;98.50;;;;;;5035048;28;20352;-72
2023/09/20 20:20:15;;;;;;;5.75;1.73;;;20.10;98.70;;;;;;5017699;28;20454;-73
2023/09/20 20:22:44;;;;;;;3.13;1.00;;;20.00;98.60;;;;;;5034016;28;20029;-73
2023/09/20 20:25:12;;;;;;;2.63;1.35;;;20.00;98.40;;;;;;5035129;28;20029;-74
2023/09/20 20:27:38;;;;;;;7.43;1.85;;;19.90;98.60;;;;;;5035194;28;20029;-73
2023/09/20 20:30:08;;;;;;;2.40;1.27;;;20.00;98.90;;;;;;5034252;28;20037;-74
2023/09/20 20:32:33;;;;;;;3.95;1.55;;;19.90;98.90;;;;;;5034896;28;20025;-73
2023/09/20 20:34:59;;;;;;;4.20;1.60;;;19.90;98.90;;;;;;5034911;28;20158;-72
2023/09/20 20:37:26;;;;;;;2.67;1.20;;;19.80;99.10;;;;;;5034860;28;20034;-72
2023/09/20 20:39:52;;;;;;;3.08;1.60;;;19.80;99.00;;;;;;5033758;28;20022;-73
2023/09/20 20:42:20;;;;;;;2.88;1.20;;;19.80;99.10;;;;;;5035214;28;20453;-73
2023/09/20 20:44:45;;;;;;;1.77;1.27;;;19.80;99.10;;;;;;5034658;28;20047;-74
2023/09/20 20:47:12;;;;;;;3.40;1.58;;;19.80;99.20;;;;;;5034586;28;20026;-73
2023/09/20 20:49:39;;;;;;;3.28;1.50;;;19.80;99.00;;;;;;5034887;28;20032;-73
2023/09/20 20:52:05;;;;;;;4.93;1.60;;;19.70;99.20;;;;;;5034602;28;20091;-73
2023/09/20 20:54:30;;;;;;;9.07;1.48;;;19.70;99.50;;;;;;5034551;28;20032;-73
2023/09/20 20:56:56;;;;;;;4.15;1.45;;;19.70;99.40;;;;;;5034870;28;20029;-73
2023/09/20 20:59:22;;;;;;;2.58;1.52;;;19.70;99.30;;;;;;5034622;28;20026;-73
2023/09/20 21:01:50;;;;;;;3.20;1.40;;;19.70;99.60;;;;;;5034548;28;20414;-74
2023/09/20 21:04:16;;;;;;;;;;;19.70;99.50;;;;;;5034726;28;20478;-74
2023/09/20 21:06:44;;;;;;;5.22;1.73;;;19.70;99.80;;;;;;5033637;28;20426;-73
2023/09/20 21:09:10;;;;;;;4.30;2.65;;;19.60;99.70;;;;;;5034349;28;20052;-73
2023/09/20 21:11:36;;;;;;;1.90;1.17;;;19.60;99.90;;;;;;5033350;28;20068;-73
2023/09/20 21:14:08;;;;;;;2.83;1.35;;;19.60;99.60;;;;;;5034224;28;20033;-73
2023/09/20 21:16:34;;;;;;;3.75;1.27;;;19.60;99.40;;;;;;5033954;28;20466;-73
2023/09/20 21:19:00;;;;;;;5.00;1.60;;;19.60;99.50;;;;;;5034664;28;20033;-72
2023/09/20 21:21:26;;;;;;;6.32;1.55;;;19.50;99.80;;;;;;5034022;28;20037;-75
2023/09/20 21:23:52;;;;;;;2.95;1.60;;;19.50;99.90;;;;;;5033828;28;20041;-74
2023/09/20 21:26:18;;;;;;;4.75;1.17;;;19.40;99.90;;;;;;5033815;28;20388;-74
2023/09/20 21:28:44;;;;;;;2.95;1.58;;;19.40;99.90;;;;;;5033815;28;20463;-74
2023/09/20 21:31:13;;;;;;;3.95;1.48;;;19.40;99.90;;;;;;5033668;28;20113;-74
2023/09/20 21:33:40;;;;;;;3.85;1.75;;;19.40;99.90;;;;;;5033757;28;20052;-74
2023/09/20 21:36:06;;;;;;;3.95;1.20;;;19.30;99.90;;;;;;5016197;28;20053;-73
2023/09/20 21:38:32;;;;;;;3.30;1.38;;;19.30;99.90;;;;;;5032523;28;20025;-73
2023/09/20 21:40:57;;;;;;;3.60;1.60;;;19.30;99.90;;;;;;5033879;28;20021;-73
2023/09/20 21:43:23;;;;;;;2.22;1.17;;;19.30;99.90;;;;;;5032206;28;20025;-75
2023/09/20 21:45:50;;;;;;;9.32;1.50;;;19.30;99.90;;;;;;5033625;28;20026;-76
2023/09/20 21:48:15;;;;;;;2.88;1.52;;;19.30;99.90;;;;;;5033605;28;20025;-75
2023/09/20 21:50:41;;;;;;;3.92;1.63;;;19.30;99.90;;;;;;5033691;28;20427;-75
2023/09/20 21:53:11;;;;;;;8.25;2.47;;;19.20;99.90;;;;;;5016099;28;20125;-75
2023/09/20 21:55:36;;;;;;;4.03;1.55;;;19.20;99.90;;;;;;5032503;28;20029;-74
2023/09/20 21:58:02;;;;;;;5.30;1.63;;;19.10;99.90;;;;;;5033541;28;20025;-74
2023/09/20 22:03:04;;;;;;;4.07;1.40;;;19.10;99.90;;;;;;5033712;28;20448;-74
2023/09/20 22:05:31;;;;;;;4.80;1.80;;;19.10;99.90;;;;;;5033259;28;20040;-74
2023/09/20 22:08:02;;;;;;;3.13;1.25;;;19.10;99.90;;;;;;5032601;28;20033;-73
2023/09/20 22:10:37;;;;;;;6.68;1.65;;;19.10;99.90;;;;;;5033035;28;20025;-74
2023/09/20 22:13:06;;;;;;;2.70;1.48;;;19.10;99.90;;;;;;5015659;28;20180;-74
2023/09/20 22:15:34;;;;;;;3.50;1.20;;;19.10;99.90;;;;;;5033142;28;20097;-74
2023/09/20 22:18:00;;;;;;;2.38;1.48;;;19.10;99.60;;;;;;5033820;28;20036;-73
2023/09/20 22:20:31;;;;;;;3.28;1.17;;;19.20;99.50;;;;;;5032206;28;20088;-73
2023/09/20 22:23:03;;;;;;;6.93;1.90;;;19.20;99.60;;;;;;5015677;28;20029;-74
2023/09/20 22:25:31;;;;;;;2.78;1.27;;;19.20;99.80;;;;;;5032919;28;20120;-74
2023/09/20 22:27:57;;;;;;;2.35;1.23;;;19.30;99.50;;;;;;5032763;28;20025;-75
2023/09/20 22:30:23;;;;;;;3.72;1.60;;;19.20;99.40;;;;;;5033505;28;20029;-74
2023/09/20 22:32:49;;;;;;;2.83;1.30;;;19.20;99.40;;;;;;5032909;28;20025;-73
2023/09/20 22:35:19;;;;;;;2.78;1.50;;;19.30;99.60;;;;;;5015312;28;20447;-74
2023/09/20 22:37:47;;;;;;;2.05;1.15;;;19.30;99.30;;;;;;5015319;28;20474;-74
2023/09/20 22:40:17;;;;;;;1.88;1.13;;;19.30;99.20;;;;;;5015352;28;20268;-74
2023/09/20 22:42:44;;;;;;;2.35;1.02;;;19.30;99.00;;;;;;5032656;28;20294;-74
2023/09/20 22:45:37;;;;;;;3.10;1.60;;;19.30;99.00;;;;;;5032840;28;20033;-74
2023/09/20 22:47:57;;;;;;;6.37;1.40;;;19.30;99.00;;;;;;5031818;28;20033;-75
2023/09/20 22:50:24;;;;;;;6.75;1.52;;;19.30;99.20;;;;;;5032725;28;20261;-74
2023/09/20 22:52:52;;;;;;;2.70;1.33;;;19.30;99.10;;;;;;5032749;28;20056;-74
2023/09/20 22:55:20;;;;;;;2.70;1.35;;;19.30;99.10;;;;;;5032744;28;20478;-73
2023/09/20 22:57:46;;;;;;;3.47;1.60;;;19.20;99.20;;;;;;5032732;28;20104;-74
2023/09/20 23:00:12;;;;;;;1.92;1.25;;;19.20;99.40;;;;;;5032620;28;20087;-74
2023/09/20 23:02:40;;;;;;;3.10;1.58;;;19.20;99.20;;;;;;5032415;28;20550;-74
2023/09/20 23:05:12;;;;;;;2.53;1.50;;;19.20;99.20;;;;;;5036367;28;20049;-74
2023/09/20 23:07:39;;;;;;;3.78;1.55;;;19.20;99.10;;;;;;5036624;28;20037;-74
2023/09/20 23:10:11;;;;;;;3.35;1.60;;;19.20;99.20;;;;;;5036596;28;20132;-73
2023/09/20 23:12:42;;;;;;;4.95;1.52;;;19.20;99.00;;;;;;5036678;28;20045;-74
2023/09/20 23:15:10;;;;;;;4.30;1.63;;;19.20;99.10;;;;;;5035724;28;20040;-74
2023/09/20 23:17:37;;;;;;;4.25;2.25;;;19.20;99.00;;;;;;5018901;28;20119;-74
2023/09/20 23:20:05;;;;;;;7.38;1.75;;;19.20;99.00;;;;;;5036680;28;20048;-74
2023/09/20 23:22:31;;;;;;;3.42;2.00;;;19.20;98.90;;;;;;5036421;28;20029;-74
2023/09/20 23:24:59;;;;;;;3.97;1.63;;;19.20;98.90;;;;;;5018877;28;20108;-73
2023/09/20 23:27:25;;;;;;;4.07;1.40;;;19.20;98.90;;;;;;5036486;28;20091;-74
2023/09/20 23:29:51;;;;;;;4.75;1.63;;;19.20;98.90;;;;;;5018777;28;20451;-74
2023/09/20 23:32:16;;;;;;;1.95;1.20;;;19.20;98.90;;;;;;5036154;28;20022;-74
2023/09/20 23:34:42;;;;;;;4.78;1.70;;;19.20;98.80;;;;;;5036177;28;20025;-74
2023/09/20 23:37:14;;;;;;;1.92;1.30;;;19.20;98.80;;;;;;5036089;28;20037;-74
2023/09/20 23:39:40;;;;;;;2.55;1.42;;;19.20;98.70;;;;;;5034826;28;20030;-75
2023/09/20 23:42:06;;;;;;;1.83;1.20;;;19.20;98.70;;;;;;5036027;28;20100;-74
2023/09/20 23:44:36;;;;;;;2.25;1.20;;;19.20;98.70;;;;;;5035838;28;20032;-75
2023/09/20 23:47:02;;;;;;;4.72;1.70;;;19.20;98.60;;;;;;5035789;28;20029;-75
2023/09/20 23:49:29;;;;;;;5.15;1.80;;;19.20;98.60;;;;;;5035819;28;20041;-74
2023/09/20 23:51:56;;;;;;;2.88;1.38;;;19.20;98.50;;;;;;5035724;28;20025;-75
2023/09/20 23:54:22;;;;;;;4.82;1.40;;;19.20;98.50;;;;;;5035782;28;20345;-75
2023/09/20 23:56:47;;;;;;;5.03;1.70;;;19.20;98.40;;;;;;5035708;28;20056;-74
2023/09/20 23:59:14;;;;;;;2.83;1.35;;;19.20;98.70;;;;;;5018156;28;20033;-75
